Main page
METAR-TAF:

METAR-TAF

Airports :

Shahid Sadooghi Airport

Yazd, Iran

latitude: 31-54N, longitude: 054-24E, elevation: 1238 m

Current weather observation

The report was made 17 minutes ago, at 16:00 UTC
Wind 16 kt from the Southwest
Temperature 19°C
Humidity 13%
Pressure 1006 hPa
Visibility 10 km or more
Few clouds at a height of 3500 ft

METAR: OIYY 171600Z 23016KT 9999 FEW035 19/M10 Q1006

Time: 19:47 (16:17 UTC)


TAF: missing

Weather observations and forecasts of more than 4000 airports (METAR and TAF reports).

The available stations are represented by yellow and red dots on the map.

Hover mouse over dot to see the name of the station.

Then click to see weather observations and forecasts.

To change the map : click on the green buttons with a black cross to zoom in, on the green button with a dash to zoom out, or on the green arrows for adjacent maps.


METAR-TAF: